createdAt,value
2022-08-02T00:02:18.427Z,2.50
2022-08-02T00:05:21.290Z,1.80
2022-08-02T00:08:23.891Z,2.30
2022-08-02T00:11:26.837Z,2.40
2022-08-02T00:14:29.452Z,2.40
2022-08-02T00:17:32.336Z,2.30
2022-08-02T00:20:35.848Z,2.40
2022-08-02T00:24:27.475Z,2.35
2022-08-02T00:27:03.874Z,2.28
2022-08-02T00:30:12.564Z,2.72
2022-08-02T00:33:15.393Z,1.95
2022-08-02T00:36:38.270Z,2.20
2022-08-02T00:39:42.534Z,2.15
2022-08-02T00:42:45.446Z,2.15
2022-08-02T00:46:02.405Z,2.60
2022-08-02T00:49:06.663Z,3.45
2022-08-02T00:52:09.622Z,2.20
2022-08-02T00:55:12.663Z,2.50
2022-08-02T00:58:20.441Z,2.50
2022-08-02T01:01:38.587Z,2.92
2022-08-02T01:04:59.467Z,2.17
2022-08-02T01:08:02.776Z,2.50
2022-08-02T01:11:05.439Z,2.40
2022-08-02T01:14:10.829Z,2.37
2022-08-02T01:17:37.102Z,2.58
2022-08-02T01:21:11.061Z,2.40
2022-08-02T01:24:37.907Z,2.33
2022-08-02T01:28:00.281Z,2.47
2022-08-02T01:31:18.672Z,2.40
2022-08-02T01:34:36.696Z,2.42
2022-08-02T01:38:01.064Z,2.30
2022-08-02T01:41:04.797Z,2.80
2022-08-02T01:44:08.119Z,2.58
2022-08-02T01:47:24.621Z,2.30
2022-08-02T01:50:33.644Z,2.30
2022-08-02T01:53:37.129Z,2.78
2022-08-02T01:56:40.865Z,2.97
2022-08-02T01:59:45.023Z,2.72
2022-08-02T02:02:49.668Z,2.80
2022-08-02T02:05:57.435Z,2.97
2022-08-02T02:09:01.227Z,2.67
2022-08-02T02:12:13.400Z,2.70
2022-08-02T02:15:16.473Z,2.90
2022-08-02T02:18:27.342Z,3.22
2022-08-02T02:21:31.357Z,2.80
2022-08-02T02:24:34.738Z,3.17
2022-08-02T02:27:37.879Z,2.60
2022-08-02T02:30:47.997Z,2.72
2022-08-02T02:33:54.212Z,2.97
2022-08-02T02:36:59.711Z,2.90
2022-08-02T02:40:02.736Z,3.10
2022-08-02T02:43:06.985Z,3.50
2022-08-02T02:46:10.185Z,2.90
2022-08-02T02:49:13.530Z,3.37
2022-08-02T02:52:17.468Z,3.00
2022-08-02T02:55:22.071Z,3.20
2022-08-02T02:58:28.800Z,3.40
2022-08-02T03:01:55.759Z,3.30
2022-08-02T03:04:57.974Z,2.78
2022-08-02T03:08:01.260Z,3.30
2022-08-02T03:11:04.504Z,3.08
2022-08-02T03:14:12.363Z,3.50
2022-08-02T03:17:14.907Z,2.78
2022-08-02T03:20:19.360Z,3.08
2022-08-02T03:23:21.918Z,3.70
2022-08-02T03:26:24.862Z,3.03
2022-08-02T03:29:30.348Z,2.80
2022-08-02T03:32:36.578Z,2.87
2022-08-02T03:35:40.831Z,3.40
2022-08-02T03:38:45.271Z,3.12
2022-08-02T03:41:49.020Z,2.55
2022-08-02T03:44:52.088Z,2.93
2022-08-02T03:47:54.926Z,3.08
2022-08-02T03:51:03.403Z,2.83
2022-08-02T03:54:06.549Z,2.78
2022-08-02T03:57:10.311Z,3.00
2022-08-02T04:00:18.346Z,3.27
2022-08-02T04:03:21.349Z,2.97
2022-08-02T04:06:27.200Z,2.85
2022-08-02T04:09:31.873Z,2.90
2022-08-02T04:12:34.687Z,2.80
2022-08-02T04:15:38.203Z,2.67
2022-08-02T04:18:44.754Z,2.87
2022-08-02T04:21:51.782Z,3.08
2022-08-02T04:24:58.097Z,3.10
2022-08-02T04:28:17.214Z,2.75
2022-08-02T04:31:21.444Z,3.40
2022-08-02T04:34:24.486Z,3.12
2022-08-02T04:37:27.363Z,3.00
2022-08-02T04:40:30.437Z,3.08
2022-08-02T04:43:33.138Z,2.90
2022-08-02T04:46:40.093Z,2.90
2022-08-02T04:49:42.806Z,3.37
2022-08-02T04:52:46.107Z,3.33
2022-08-02T04:55:48.794Z,3.08
2022-08-02T04:58:51.761Z,2.70
2022-08-02T05:01:54.598Z,3.17
2022-08-02T05:04:57.433Z,2.90
2022-08-02T05:08:00.113Z,2.85
2022-08-02T05:11:03.409Z,2.50
2022-08-02T05:14:06.330Z,2.70
2022-08-02T05:17:09.142Z,3.10
2022-08-02T05:20:15.850Z,3.00
2022-08-02T05:23:18.687Z,2.85
2022-08-02T05:26:21.457Z,2.90
2022-08-02T05:29:25.305Z,2.62
2022-08-02T05:32:27.826Z,2.90
2022-08-02T05:35:30.756Z,2.67
2022-08-02T05:38:35.073Z,2.85
2022-08-02T05:41:40.351Z,2.83
2022-08-02T05:44:42.894Z,2.55
2022-08-02T05:47:45.768Z,2.17
2022-08-02T05:50:50.948Z,1.95
2022-08-02T05:54:06.722Z,2.20
2022-08-02T05:57:27.697Z,2.10
2022-08-02T06:00:32.365Z,1.50
2022-08-02T06:03:40.246Z,1.80
2022-08-02T06:06:44.716Z,1.70
2022-08-02T06:09:49.684Z,1.87
2022-08-02T06:13:14.207Z,1.75
2022-08-02T06:16:18.066Z,2.15
2022-08-02T06:19:51.630Z,2.13
2022-08-02T06:22:56.522Z,1.85
2022-08-02T06:26:00.395Z,1.90
2022-08-02T06:29:04.017Z,1.70
2022-08-02T06:32:07.739Z,2.00
2022-08-02T06:35:10.732Z,1.70
2022-08-02T06:38:25.376Z,1.92
2022-08-02T06:41:32.053Z,1.85
2022-08-02T06:44:53.123Z,1.90
2022-08-02T06:47:57.603Z,2.33
2022-08-02T06:51:00.441Z,1.90
2022-08-02T06:54:03.465Z,1.60
2022-08-02T06:57:06.113Z,1.85
2022-08-02T07:00:09.963Z,1.90
2022-08-02T07:03:13.057Z,1.70
2022-08-02T07:06:16.388Z,1.60
2022-08-02T07:09:20.955Z,2.03
2022-08-02T07:12:24.102Z,1.58
2022-08-02T07:15:26.720Z,1.67
2022-08-02T07:18:29.637Z,1.80
2022-08-02T07:21:56.830Z,2.00
2022-08-02T07:24:58.301Z,1.67
2022-08-02T07:28:00.845Z,1.80
2022-08-02T07:31:04.355Z,1.85
2022-08-02T07:34:06.931Z,2.00
2022-08-02T07:37:22.347Z,1.70
2022-08-02T07:40:33.890Z,1.60
2022-08-02T07:43:37.182Z,1.70
2022-08-02T07:46:39.954Z,1.67
2022-08-02T07:49:42.979Z,1.60
2022-08-02T07:52:46.266Z,1.60
2022-08-02T07:55:49.151Z,1.62
2022-08-02T07:58:52.397Z,1.92
2022-08-02T08:01:55.948Z,1.90
2022-08-02T08:04:59.023Z,1.73
2022-08-02T08:08:01.940Z,2.30
2022-08-02T08:11:05.190Z,1.75
2022-08-02T08:14:13.432Z,2.03
2022-08-02T08:17:19.792Z,2.10
2022-08-02T08:20:23.199Z,1.85
2022-08-02T08:23:26.300Z,1.97
2022-08-02T08:26:28.930Z,1.73
2022-08-02T08:29:32.108Z,1.60
2022-08-02T08:32:34.753Z,1.90
2022-08-02T08:35:40.359Z,1.90
2022-08-02T08:38:43.004Z,1.93
2022-08-02T08:41:46.893Z,2.10
2022-08-02T08:44:49.562Z,1.70
2022-08-02T08:48:01.366Z,1.90
2022-08-02T08:51:16.684Z,2.00
2022-08-02T08:54:24.775Z,2.00
2022-08-02T08:57:29.705Z,2.00
2022-08-02T09:00:34.586Z,1.80
2022-08-02T09:03:37.393Z,2.22
2022-08-02T09:06:40.722Z,1.83
2022-08-02T09:09:43.430Z,2.00
2022-08-02T09:12:46.324Z,1.90
2022-08-02T09:16:12.183Z,1.98
2022-08-02T09:19:26.620Z,1.60
2022-08-02T09:22:30.222Z,1.85
2022-08-02T09:25:33.552Z,1.90
2022-08-02T09:28:39.258Z,1.90
2022-08-02T09:31:49.405Z,2.10
2022-08-02T09:34:53.871Z,1.90
2022-08-02T09:38:11.622Z,2.00
2022-08-02T09:41:28.177Z,2.10
2022-08-02T09:44:31.330Z,2.03
2022-08-02T09:47:37.527Z,1.85
2022-08-02T09:50:45.291Z,2.15
2022-08-02T09:54:01.978Z,1.90
2022-08-02T09:57:10.889Z,2.20
2022-08-02T10:00:23.321Z,1.80
2022-08-02T10:03:37.412Z,1.92
2022-08-02T10:06:41.286Z,1.65
2022-08-02T10:09:47.493Z,1.80
2022-08-02T10:12:50.748Z,1.87
2022-08-02T10:15:54.063Z,1.90
2022-08-02T10:18:58.067Z,2.10
2022-08-02T10:22:12.435Z,1.83
2022-08-02T10:25:15.863Z,2.20
2022-08-02T10:28:19.048Z,2.60
2022-08-02T10:31:25.788Z,2.10
2022-08-02T10:34:33.268Z,1.85
2022-08-02T10:37:39.305Z,2.10
2022-08-02T10:40:55.242Z,2.33
2022-08-02T10:44:00.083Z,2.07
2022-08-02T10:47:15.441Z,2.03
2022-08-02T10:50:19.166Z,2.20
2022-08-02T10:53:32.735Z,2.45
2022-08-02T10:56:56.736Z,2.20
2022-08-02T11:00:28.059Z,2.10
2022-08-02T11:03:42.196Z,2.20
2022-08-02T11:07:07.615Z,2.70
2022-08-02T11:10:30.534Z,2.25
2022-08-02T11:13:59.295Z,2.20
2022-08-02T11:17:05.970Z,2.20
2022-08-02T11:20:12.821Z,2.30
2022-08-02T11:23:44.008Z,2.80
2022-08-02T11:26:48.770Z,1.90
2022-08-02T11:29:51.635Z,1.85
2022-08-02T11:32:59.384Z,2.30
2022-08-02T11:36:04.417Z,1.60
2022-08-02T11:39:12.018Z,2.10
2022-08-02T11:42:15.329Z,1.52
2022-08-02T11:45:29.314Z,1.60
2022-08-02T11:48:41.849Z,1.87
2022-08-02T11:52:05.231Z,2.00
2022-08-02T11:55:09.224Z,1.75
2022-08-02T11:58:12.216Z,2.00
2022-08-02T12:01:14.764Z,1.87
2022-08-02T12:04:22.445Z,2.00
2022-08-02T12:07:38.859Z,1.60
2022-08-02T12:10:51.081Z,2.00
2022-08-02T12:13:56.980Z,2.20
2022-08-02T12:17:19.135Z,1.80
2022-08-02T12:20:35.575Z,1.90
2022-08-02T12:23:59.920Z,2.05
2022-08-02T12:27:03.463Z,1.87
2022-08-02T12:30:13.231Z,1.80
2022-08-02T12:33:17.774Z,1.60
2022-08-02T12:36:21.262Z,1.90
2022-08-02T12:39:35.382Z,1.73
2022-08-02T12:42:48.884Z,2.40
2022-08-02T12:45:53.967Z,1.67
2022-08-02T12:49:16.971Z,1.80
2022-08-02T12:52:24.052Z,1.90
2022-08-02T12:56:02.324Z,1.70
2022-08-02T12:58:50.457Z,1.77
2022-08-02T13:01:53.485Z,1.70
2022-08-02T13:05:03.971Z,1.80
2022-08-02T13:08:07.027Z,1.70
2022-08-02T13:11:09.586Z,1.65
2022-08-02T13:14:15.020Z,1.65
2022-08-02T13:17:17.654Z,1.65
2022-08-02T13:20:27.858Z,1.70
2022-08-02T13:23:54.206Z,1.90
2022-08-02T13:26:55.702Z,1.70
2022-08-02T13:30:00.673Z,1.70
2022-08-02T13:33:03.828Z,1.87
2022-08-02T13:36:09.111Z,1.60
2022-08-02T13:39:12.866Z,1.80
2022-08-02T13:42:15.717Z,1.83
2022-08-02T13:45:19.998Z,1.90
2022-08-02T13:48:22.658Z,1.92
2022-08-02T13:51:26.639Z,1.87
2022-08-02T13:54:29.358Z,1.70
2022-08-02T13:57:32.365Z,1.52
2022-08-02T14:00:36.310Z,1.92
2022-08-02T14:04:07.937Z,1.40
2022-08-02T14:07:02.334Z,1.45
2022-08-02T14:10:05.815Z,1.60
2022-08-02T14:13:08.849Z,1.30
2022-08-02T14:16:11.980Z,1.70
2022-08-02T14:19:16.022Z,1.42
2022-08-02T14:22:20.082Z,1.50
2022-08-02T14:25:22.646Z,1.60
2022-08-02T14:28:25.834Z,1.50
2022-08-02T14:31:29.681Z,1.50
2022-08-02T14:34:32.737Z,1.15
2022-08-02T14:37:35.620Z,1.50
2022-08-02T14:40:42.344Z,1.60
2022-08-02T14:44:03.180Z,1.23
2022-08-02T14:47:06.107Z,1.30
2022-08-02T14:50:09.283Z,1.23
2022-08-02T14:53:13.205Z,1.55
2022-08-02T14:56:18.755Z,1.60
2022-08-02T14:59:21.611Z,1.52
2022-08-02T15:02:24.172Z,1.50
2022-08-02T15:05:27.015Z,1.77
2022-08-02T15:08:29.851Z,1.52
2022-08-02T15:11:47.627Z,1.73
2022-08-02T15:14:52.303Z,1.40
2022-08-02T15:17:55.263Z,1.60
2022-08-02T15:20:58.003Z,1.35
2022-08-02T15:24:00.921Z,1.58
2022-08-02T15:27:03.741Z,1.50
2022-08-02T15:30:09.674Z,1.50
2022-08-02T15:33:13.270Z,1.67
2022-08-02T15:36:16.790Z,1.95
2022-08-02T15:39:19.755Z,1.42
2022-08-02T15:42:30.692Z,1.03
2022-08-02T15:45:35.334Z,1.20
2022-08-02T15:48:39.318Z,1.12
2022-08-02T15:51:41.798Z,1.30
2022-08-02T15:54:44.688Z,1.20
2022-08-02T15:57:47.239Z,1.20
2022-08-02T16:00:50.968Z,1.17
2022-08-02T16:03:53.876Z,1.35
2022-08-02T16:06:56.734Z,1.05
2022-08-02T16:09:59.807Z,0.80
2022-08-02T16:13:21.289Z,1.00
2022-08-02T16:16:27.252Z,0.80
2022-08-02T16:19:48.254Z,0.80
2022-08-02T16:22:52.232Z,1.00
2022-08-02T16:25:54.997Z,1.00
2022-08-02T16:28:58.894Z,0.87
2022-08-02T16:32:01.600Z,1.12
2022-08-02T16:35:07.965Z,0.70
2022-08-02T16:38:12.181Z,0.80
2022-08-02T16:41:16.211Z,1.00
2022-08-02T16:44:29.007Z,0.83
2022-08-02T16:47:42.685Z,0.80
2022-08-02T16:50:47.359Z,0.80
2022-08-02T16:54:00.143Z,0.60
2022-08-02T16:57:05.012Z,0.80
2022-08-02T17:00:10.233Z,0.80
2022-08-02T17:03:13.834Z,0.93
2022-08-02T17:06:17.072Z,1.10
2022-08-02T17:10:03.410Z,1.25
2022-08-02T17:12:43.667Z,0.77
2022-08-02T17:16:16.091Z,0.70
2022-08-02T17:19:09.535Z,2.00
2022-08-02T17:22:12.892Z,2.10
2022-08-02T17:25:17.528Z,0.85
2022-08-02T17:28:20.255Z,0.85
2022-08-02T17:31:29.395Z,0.90
2022-08-02T17:34:33.470Z,0.88
2022-08-02T17:37:41.512Z,0.80
2022-08-02T17:40:44.897Z,1.10
2022-08-02T17:43:48.033Z,0.80
2022-08-02T17:46:50.679Z,0.80
2022-08-02T17:49:54.274Z,0.98
2022-08-02T17:52:57.266Z,0.68
2022-08-02T17:56:00.407Z,0.70
2022-08-02T17:59:20.951Z,0.70
2022-08-02T18:02:28.904Z,0.70
2022-08-02T18:05:40.281Z,0.93
2022-08-02T18:08:52.337Z,0.75
2022-08-02T18:11:56.170Z,1.20
2022-08-02T18:14:58.835Z,0.85
2022-08-02T18:18:02.197Z,0.90
2022-08-02T18:21:15.628Z,0.73
2022-08-02T18:24:28.424Z,0.60
2022-08-02T18:27:31.457Z,0.80
2022-08-02T18:30:35.367Z,0.88
2022-08-02T18:33:58.365Z,1.00
2022-08-02T18:37:04.567Z,1.00
2022-08-02T18:40:09.796Z,0.70
2022-08-02T18:43:14.323Z,0.70
2022-08-02T18:46:19.837Z,0.62
2022-08-02T18:49:24.575Z,0.73
2022-08-02T18:52:32.717Z,0.60
2022-08-02T18:55:59.942Z,0.60
2022-08-02T18:58:59.623Z,0.73
2022-08-02T19:02:06.191Z,0.70
2022-08-02T19:05:10.535Z,0.50
2022-08-02T19:08:13.951Z,0.57
2022-08-02T19:11:16.900Z,0.40
2022-08-02T19:14:27.246Z,0.60
2022-08-02T19:17:54.821Z,0.50
2022-08-02T19:20:57.104Z,0.40
2022-08-02T19:24:04.551Z,0.52
2022-08-02T19:27:14.187Z,0.50
2022-08-02T19:30:18.500Z,0.75
2022-08-02T19:34:04.728Z,0.70
2022-08-02T19:36:47.628Z,0.80
2022-08-02T19:39:50.619Z,0.90
2022-08-02T19:44:20.988Z,0.85
2022-08-02T19:46:16.870Z,0.93
2022-08-02T19:52:42.597Z,1.00
2022-08-02T19:56:00.158Z,1.45
2022-08-02T19:59:12.999Z,1.48
2022-08-02T20:02:30.205Z,1.60
2022-08-02T20:05:36.562Z,2.22
2022-08-02T20:08:39.792Z,2.10
2022-08-02T20:11:54.125Z,2.37
2022-08-02T20:14:57.579Z,2.47
2022-08-02T20:18:00.880Z,2.30
2022-08-02T20:21:03.681Z,2.67
2022-08-02T20:24:07.476Z,2.67
2022-08-02T20:27:13.578Z,2.50
2022-08-02T20:30:20.187Z,2.40
2022-08-02T20:33:27.975Z,2.47
2022-08-02T20:36:30.851Z,2.65
2022-08-02T20:39:42.709Z,2.63
2022-08-02T20:42:47.857Z,2.62
2022-08-02T20:45:50.886Z,3.03
2022-08-02T20:48:53.817Z,2.92
2022-08-02T20:52:01.965Z,2.70
2022-08-02T20:55:05.307Z,2.93
2022-08-02T20:58:11.853Z,3.08
2022-08-02T21:01:15.074Z,2.92
2022-08-02T21:04:19.311Z,3.37
2022-08-02T21:07:22.393Z,3.12
2022-08-02T21:10:25.347Z,3.10
2022-08-02T21:13:28.197Z,3.10
2022-08-02T21:16:30.708Z,3.25
2022-08-02T21:19:33.901Z,3.58
2022-08-02T21:22:36.488Z,3.17
2022-08-02T21:25:42.798Z,3.53
2022-08-02T21:29:00.993Z,3.28
2022-08-02T21:32:06.673Z,3.78
2022-08-02T21:35:10.608Z,3.50
2022-08-02T21:38:35.581Z,3.85
2022-08-02T21:41:38.941Z,3.40
2022-08-02T21:44:50.754Z,3.58
2022-08-02T21:47:53.353Z,3.47
2022-08-02T21:50:56.208Z,3.60
2022-08-02T21:54:17.479Z,3.65
2022-08-02T21:57:22.835Z,3.50
2022-08-02T22:00:28.351Z,3.25
2022-08-02T22:03:32.600Z,3.70
2022-08-02T22:06:35.583Z,3.53
2022-08-02T22:09:43.017Z,3.75
2022-08-02T22:12:47.879Z,3.60
2022-08-02T22:15:50.931Z,3.22
2022-08-02T22:18:54.450Z,3.40
2022-08-02T22:22:00.412Z,3.53
2022-08-02T22:25:04.104Z,3.25
2022-08-02T22:28:37.414Z,3.77
2022-08-02T22:31:41.070Z,3.90
2022-08-02T22:34:51.671Z,3.80
2022-08-02T22:38:14.791Z,3.45
2022-08-02T22:41:17.929Z,4.03
2022-08-02T22:44:20.634Z,3.57
2022-08-02T22:47:23.500Z,3.50
2022-08-02T22:50:32.589Z,3.65
2022-08-02T22:53:36.351Z,3.42
2022-08-02T22:56:39.030Z,3.62
2022-08-02T22:59:05.857Z,0.93
2022-08-02T22:59:47.513Z,3.53
2022-08-02T23:02:51.403Z,4.05
2022-08-02T23:05:54.252Z,3.30
2022-08-02T23:08:56.808Z,3.70
2022-08-02T23:11:59.717Z,3.80
2022-08-02T23:15:02.252Z,3.40
2022-08-02T23:18:24.830Z,3.85
2022-08-02T23:22:01.579Z,3.70
2022-08-02T23:24:55.759Z,3.67
2022-08-02T23:27:58.235Z,3.40
2022-08-02T23:31:01.762Z,3.60
2022-08-02T23:34:05.825Z,3.83
2022-08-02T23:37:08.949Z,3.50
2022-08-02T23:40:11.845Z,3.58
2022-08-02T23:43:17.983Z,3.22
2022-08-02T23:46:20.740Z,3.70
2022-08-02T23:49:24.273Z,3.70
2022-08-02T23:52:26.801Z,3.65
2022-08-02T23:55:29.668Z,3.65
2022-08-02T23:58:32.961Z,3.45
